Time;durP1;ratioP1;P1;durP2;ratioP2;P2;SDS_P1;SDS_P2;PMS_P1;PMS_P2;Temp;Humidity;BMP_temperature;BMP_pressure;BME280_temperature;BME280_humidity;BME280_pressure;Samples;Min_cycle;Max_cycle;Signal;HPM_P1;HPM_P2
2022/03/02 00:01:14;;;;;;;26.00;8.30;;;;;;;0.94;52.05;100570.69;5093421;28;20516;-73
2022/03/02 00:03:44;;;;;;;18.08;7.60;;;;;;;0.99;51.83;100568.44;5093245;28;20043;-73
2022/03/02 00:06:14;;;;;;;17.27;7.38;;;;;;;1.04;52.16;100572.91;5093472;28;20043;-71
2022/03/02 00:08:43;;;;;;;15.75;6.20;;;;;;;1.24;51.11;100564.75;5093535;28;20078;-71
2022/03/02 00:11:12;;;;;;;14.45;6.22;;;;;;;1.31;50.85;100564.25;5093050;28;20072;-71
2022/03/02 00:13:41;;;;;;;15.02;6.70;;;;;;;1.26;51.23;100568.19;5093119;28;20048;-71
2022/03/02 00:16:12;;;;;;;15.02;6.43;;;;;;;1.10;51.96;100568.22;5093364;28;20555;-72
2022/03/02 00:18:41;;;;;;;15.88;6.82;;;;;;;1.15;51.97;100561.75;5093151;28;20055;-72
2022/03/02 00:21:11;;;;;;;17.30;6.18;;;;;;;1.11;52.04;100554.84;5093283;28;20048;-72
2022/03/02 00:23:40;;;;;;;21.05;6.10;;;;;;;1.13;52.88;100562.44;5092899;28;20060;-71
2022/03/02 00:26:09;;;;;;;13.00;5.40;;;;;;;0.75;53.03;100552.94;5096184;28;20044;-71
2022/03/02 00:28:38;;;;;;;15.53;5.13;;;;;;;0.91;53.16;100560.50;5097110;28;20028;-71
2022/03/02 00:31:07;;;;;;;11.17;5.27;;;;;;;1.06;53.25;100558.78;5096451;28;20277;-71
2022/03/02 00:33:37;;;;;;;10.67;4.67;;;;;;;0.83;53.17;100538.28;5096414;28;20059;-71
2022/03/02 00:36:06;;;;;;;15.63;6.00;;;;;;;0.74;53.61;100546.22;5096725;28;20194;-72
2022/03/02 00:38:35;;;;;;;16.23;5.67;;;;;;;0.78;53.49;100554.75;5096237;28;20379;-71
2022/03/02 00:41:05;;;;;;;12.77;5.53;;;;;;;0.75;53.64;100547.06;5096355;28;20036;-71
2022/03/02 00:43:33;;;;;;;10.70;5.15;;;;;;;0.72;53.42;100546.94;5096248;28;20090;-71
2022/03/02 00:46:03;;;;;;;10.75;5.45;;;;;;;0.73;53.39;100544.47;5096486;28;20562;-73
2022/03/02 00:48:32;;;;;;;13.57;5.45;;;;;;;0.54;53.24;100541.78;5096055;28;20477;-73
2022/03/02 00:51:03;;;;;;;12.50;5.10;;;;;;;0.40;53.13;100547.75;5096170;28;20043;-71
2022/03/02 00:53:32;;;;;;;11.48;4.80;;;;;;;0.49;52.99;100548.22;5096044;28;20055;-71
2022/03/02 00:56:01;;;;;;;11.70;5.78;;;;;;;0.45;53.03;100542.19;5096077;28;20040;-71
2022/03/02 00:58:30;;;;;;;13.47;5.53;;;;;;;0.30;53.28;100521.28;5096528;28;20381;-71
2022/03/02 01:01:00;;;;;;;10.90;4.93;;;;;;;0.34;53.52;100539.88;5094969;28;20050;-71
2022/03/02 01:03:29;;;;;;;11.10;5.07;;;;;;;0.28;53.50;100539.56;5096008;28;20534;-72
2022/03/02 01:05:59;;;;;;;13.70;5.55;;;;;;;0.25;53.47;100536.88;5095817;28;20273;-71
2022/03/02 01:08:29;;;;;;;13.77;5.25;;;;;;;0.21;53.47;100529.97;5096086;28;20504;-71
2022/03/02 01:10:58;;;;;;;11.98;5.28;;;;;;;0.20;53.25;100533.25;5094959;28;20043;-71
2022/03/02 01:13:27;;;;;;;14.43;5.65;;;;;;;0.20;53.73;100528.22;5094625;28;20074;-71
2022/03/02 01:15:56;;;;;;;11.05;4.50;;;;;;;0.19;53.97;100519.00;5096252;28;20485;-72
2022/03/02 01:18:25;;;;;;;15.53;5.10;;;;;;;0.10;54.55;100521.84;5095584;28;20031;-71
2022/03/02 01:20:54;;;;;;;11.88;5.15;;;;;;;0.12;54.88;100514.44;5095650;28;20296;-71
2022/03/02 01:23:23;;;;;;;14.40;5.90;;;;;;;0.17;55.11;100513.88;5095504;28;20055;-71
2022/03/02 01:25:53;;;;;;;12.93;4.70;;;;;;;0.20;54.79;100508.16;5095483;28;20075;-71
2022/03/02 01:28:22;;;;;;;17.13;5.75;;;;;;;0.10;54.96;100500.94;5095461;28;20052;-71
2022/03/02 01:30:51;;;;;;;13.83;5.73;;;;;;;-0.06;55.38;100485.06;5095945;28;20036;-71
2022/03/02 01:33:20;;;;;;;14.35;5.70;;;;;;;0.03;55.41;100493.84;5095444;28;20036;-71
2022/03/02 01:35:49;;;;;;;10.97;5.03;;;;;;;0.13;55.69;100496.06;5094812;28;20044;-71
2022/03/02 01:38:18;;;;;;;12.60;5.15;;;;;;;0.09;56.00;100490.03;5095544;28;20127;-72
2022/03/02 01:40:47;;;;;;;8.10;4.00;;;;;;;-0.07;56.27;100493.34;5095114;28;20048;-71
2022/03/02 01:43:18;;;;;;;9.93;4.95;;;;;;;-0.15;56.46;100489.59;5095098;28;20067;-71
2022/03/02 01:45:47;;;;;;;12.52;5.00;;;;;;;-0.21;56.37;100476.69;5095136;28;20070;-71
2022/03/02 01:48:16;;;;;;;13.00;5.20;;;;;;;-0.23;56.46;100480.75;5094745;28;20059;-71
2022/03/02 01:50:45;;;;;;;10.95;4.88;;;;;;;-0.31;56.69;100487.00;5094949;28;20036;-71
2022/03/02 01:53:14;;;;;;;13.87;4.63;;;;;;;-0.22;56.50;100487.53;5094849;28;20048;-71
2022/03/02 01:55:43;;;;;;;11.77;5.07;;;;;;;-0.15;56.23;100484.56;5094989;28;20089;-71
2022/03/02 01:58:12;;;;;;;13.60;5.17;;;;;;;-0.18;56.26;100479.38;5095077;28;20443;-71
2022/03/02 02:00:43;;;;;;;11.82;3.92;;;;;;;-0.37;56.40;100481.66;5096072;28;20071;-71
2022/03/02 02:03:12;;;;;;;11.07;4.95;;;;;;;-0.53;56.76;100491.63;5094903;28;20048;-71
2022/03/02 02:05:41;;;;;;;13.23;4.80;;;;;;;-0.49;56.66;100490.13;5094576;28;20044;-71
2022/03/02 02:08:10;;;;;;;10.63;4.13;;;;;;;-0.38;57.07;100479.91;5095165;28;20510;-71
2022/03/02 02:10:39;;;;;;;11.43;5.05;;;;;;;-0.48;57.09;100476.84;5094578;28;20059;-71
2022/03/02 02:13:08;;;;;;;13.23;4.87;;;;;;;-0.56;56.78;100483.94;5093398;28;20043;-71
2022/03/02 02:15:37;;;;;;;13.27;4.70;;;;;;;-0.59;56.79;100487.88;5094595;28;20071;-71
2022/03/02 02:18:08;;;;;;;12.95;5.03;;;;;;;-0.48;56.83;100487.69;5094439;28;20097;-71
2022/03/02 02:20:39;;;;;;;11.57;4.75;;;;;;;-0.52;56.88;100483.31;5094469;28;20079;-71
2022/03/02 02:23:08;;;;;;;10.80;4.63;;;;;;;-0.71;56.74;100485.56;5094643;28;20052;-71
2022/03/02 02:25:37;;;;;;;11.75;5.20;;;;;;;-0.89;57.25;100484.53;5094388;28;20040;-71
2022/03/02 02:28:10;;;;;;;9.43;3.90;;;;;;;-1.10;57.41;100475.75;5094498;28;20060;-71
2022/03/02 02:30:40;;;;;;;12.43;4.65;;;;;;;-0.96;58.02;100479.94;5094903;28;20161;-71
2022/03/02 02:33:10;;;;;;;11.40;4.93;;;;;;;-0.85;57.56;100478.91;5094538;28;20620;-71
2022/03/02 02:35:41;;;;;;;11.23;4.72;;;;;;;-0.86;57.53;100474.66;5060677;28;20089;-71
2022/03/02 02:38:11;;;;;;;12.55;5.35;;;;;;;-0.87;57.49;100480.47;5094736;28;20120;-71
2022/03/02 02:40:42;;;;;;;11.00;5.05;;;;;;;-0.82;57.29;100474.94;5093279;28;20055;-70
2022/03/02 02:43:11;;;;;;;14.40;5.10;;;;;;;-0.76;57.50;100474.41;5094233;28;20047;-71
2022/03/02 02:45:40;;;;;;;10.38;4.95;;;;;;;-0.74;56.97;100465.34;5093858;28;20048;-71
2022/03/02 02:48:10;;;;;;;11.23;5.03;;;;;;;-0.83;57.42;100467.31;5093033;28;20051;-71
2022/03/02 02:50:40;;;;;;;12.68;4.30;;;;;;;-0.91;57.63;100469.38;5094010;28;20291;-71
2022/03/02 02:53:12;;;;;;;17.33;5.15;;;;;;;-0.96;57.41;100465.75;5092785;28;20051;-70
2022/03/02 02:55:43;;;;;;;12.25;4.22;;;;;;;-1.04;57.69;100461.09;5094131;28;20052;-70
2022/03/02 02:58:13;;;;;;;12.77;4.63;;;;;;;-1.10;58.05;100456.59;5093889;28;20073;-70
2022/03/02 03:00:45;;;;;;;11.13;4.78;;;;;;;-1.07;58.26;100465.91;5094051;28;20048;-70
2022/03/02 03:03:15;;;;;;;9.48;4.70;;;;;;;-1.07;58.01;100453.41;5094015;28;20393;-70
2022/03/02 03:05:45;;;;;;;12.05;4.30;;;;;;;-0.80;58.15;100457.47;5093907;28;20033;-71
2022/03/02 03:08:15;;;;;;;14.30;5.82;;;;;;;-0.79;58.19;100459.19;5094137;28;20052;-71
2022/03/02 03:10:45;;;;;;;13.52;5.00;;;;;;;-0.74;58.27;100432.75;5094328;28;20044;-71
2022/03/02 03:13:15;;;;;;;11.50;5.68;;;;;;;-0.50;57.64;100459.19;5094134;28;20067;-71
2022/03/02 03:15:44;;;;;;;;;;;;;;;-0.61;57.48;100450.22;5094147;28;20051;-71
2022/03/02 03:18:13;;;;;;;13.02;6.05;;;;;;;-0.62;57.65;100462.69;5093988;28;19981;-71
2022/03/02 03:20:43;;;;;;;16.15;6.45;;;;;;;-0.64;57.81;100455.06;5093565;28;20093;-71
2022/03/02 03:23:14;;;;;;;15.82;6.40;;;;;;;-0.63;57.81;100466.81;5093800;28;20089;-71
2022/03/02 03:25:43;;;;;;;12.70;6.10;;;;;;;-0.71;57.79;100468.03;5093746;28;20510;-71
2022/03/02 03:28:12;;;;;;;13.37;5.57;;;;;;;-0.90;58.27;100457.72;5093835;28;20090;-71
2022/03/02 03:30:41;;;;;;;16.48;6.93;;;;;;;-1.13;58.87;100470.59;5093586;28;20277;-71
2022/03/02 03:33:10;;;;;;;13.93;6.17;;;;;;;-1.27;59.38;100462.25;5093718;28;20044;-71
2022/03/02 03:35:39;;;;;;;12.63;5.00;;;;;;;-1.31;60.01;100464.50;5094090;28;20304;-71
2022/03/02 03:38:07;;;;;;;13.50;5.50;;;;;;;-1.52;60.12;100465.00;5093713;28;20048;-70
2022/03/02 03:40:38;;;;;;;15.60;5.97;;;;;;;-1.50;60.74;100465.94;5094307;28;20082;-71
2022/03/02 03:43:07;;;;;;;16.95;5.78;;;;;;;-1.46;60.29;100460.31;5094213;28;20812;-71
2022/03/02 03:45:36;;;;;;;16.93;5.60;;;;;;;-1.43;60.50;100460.53;5093859;28;20093;-71
2022/03/02 03:48:06;;;;;;;14.80;5.60;;;;;;;-1.32;60.55;100457.78;5093861;28;20284;-71
2022/03/02 03:50:35;;;;;;;14.20;6.03;;;;;;;-1.32;60.88;100458.66;5093573;28;20044;-71
2022/03/02 03:53:04;;;;;;;13.85;5.80;;;;;;;-1.43;60.87;100454.63;5093701;28;20044;-71
2022/03/02 03:55:33;;;;;;;13.35;5.38;;;;;;;-1.30;60.64;100451.22;5093568;28;20101;-71
2022/03/02 03:58:04;;;;;;;14.48;4.80;;;;;;;-1.34;60.88;100449.31;5093893;28;20068;-71
2022/03/02 04:00:33;;;;;;;17.58;6.10;;;;;;;-1.30;61.00;100456.22;5099124;28;20079;-71
2022/03/02 04:03:04;;;;;;;11.70;5.07;;;;;;;-1.23;60.71;100450.81;5097634;28;20082;-71
2022/03/02 04:05:33;;;;;;;13.82;5.88;;;;;;;-1.28;60.40;100455.53;5097339;28;20501;-71
2022/03/02 04:08:02;;;;;;;10.98;4.90;;;;;;;-1.47;60.58;100453.63;5097453;28;20047;-71
2022/03/02 04:10:31;;;;;;;13.23;4.93;;;;;;;-1.55;61.06;100449.78;5097818;28;20048;-71
2022/03/02 04:13:00;;;;;;;20.20;6.80;;;;;;;-1.54;61.49;100439.00;5097916;28;20295;-70
2022/03/02 04:15:30;;;;;;;14.57;6.63;;;;;;;-1.46;61.50;100446.94;5097747;28;20082;-71
2022/03/02 04:17:59;;;;;;;17.00;5.93;;;;;;;-1.44;61.15;100447.94;5096663;28;20638;-71
2022/03/02 04:20:28;;;;;;;16.47;6.20;;;;;;;-1.49;61.39;100450.13;5097367;28;20493;-71
2022/03/02 04:22:58;;;;;;;12.40;5.45;;;;;;;-1.56;61.65;100438.03;5096351;28;20443;-71
2022/03/02 04:25:27;;;;;;;15.18;5.65;;;;;;;-1.43;61.47;100440.50;5097143;28;20115;-71
2022/03/02 04:27:56;;;;;;;10.55;5.10;;;;;;;-1.21;61.07;100436.72;5097769;28;20405;-71
2022/03/02 04:30:26;;;;;;;16.10;5.55;;;;;;;-1.23;60.70;100429.13;5097060;28;20097;-71
2022/03/02 04:32:57;;;;;;;16.65;6.28;;;;;;;-1.23;60.36;100438.28;5097597;28;20048;-71
2022/03/02 04:35:27;;;;;;;16.88;6.07;;;;;;;-1.18;60.26;100434.41;5097740;28;20482;-71
2022/03/02 04:37:56;;;;;;;16.35;5.78;;;;;;;-1.20;60.04;100425.94;5097809;28;20036;-71
2022/03/02 04:40:25;;;;;;;12.95;4.97;;;;;;;-1.30;60.57;100433.69;5097813;28;20074;-71
2022/03/02 04:42:55;;;;;;;13.33;5.47;;;;;;;-1.27;60.54;100436.38;5096981;28;20044;-71
2022/03/02 04:45:25;;;;;;;15.82;5.57;;;;;;;-1.27;60.60;100433.88;5096900;28;20762;-71
2022/03/02 04:47:57;;;;;;;17.58;6.28;;;;;;;-1.37;60.20;100435.00;5097278;28;20082;-71
2022/03/02 04:50:26;;;;;;;15.65;5.30;;;;;;;-1.45;60.88;100437.03;5097363;28;20123;-71
2022/03/02 04:52:56;;;;;;;15.90;5.85;;;;;;;-1.31;60.59;100439.47;5097939;28;20098;-71
2022/03/02 04:55:25;;;;;;;14.75;6.32;;;;;;;-1.20;60.84;100428.44;5096603;28;20040;-71
2022/03/02 04:57:56;;;;;;;19.20;6.47;;;;;;;-1.23;60.59;100424.13;5096721;28;20048;-71
2022/03/02 05:00:27;;;;;;;15.10;5.72;;;;;;;-1.39;60.38;100422.38;5097363;28;20040;-71
2022/03/02 05:03:02;;;;;;;16.85;5.55;;;;;;;-1.43;60.74;100419.59;5095898;28;20076;-71
2022/03/02 05:05:33;;;;;;;12.60;5.88;;;;;;;-1.39;60.92;100426.50;5096760;28;20047;-71
2022/03/02 05:08:02;;;;;;;15.98;6.72;;;;;;;-1.13;60.61;100423.88;5096860;28;20071;-71
2022/03/02 05:10:31;;;;;;;13.10;6.03;;;;;;;-1.07;59.99;100423.34;5096166;28;20075;-71
2022/03/02 05:13:01;;;;;;;20.27;7.53;;;;;;;-1.23;59.99;100428.28;5096844;28;20379;-71
2022/03/02 05:15:31;;;;;;;26.25;7.38;;;;;;;-1.45;60.92;100422.03;5096356;28;20040;-71
2022/03/02 05:18:01;;;;;;;16.80;6.10;;;;;;;-1.59;61.16;100427.00;5096242;28;20039;-71
2022/03/02 05:20:30;;;;;;;18.00;7.50;;;;;;;-1.71;61.45;100427.13;5096094;28;20044;-71
2022/03/02 05:22:59;;;;;;;21.17;7.15;;;;;;;-1.61;61.52;100429.38;5096484;28;20067;-71
2022/03/02 05:25:28;;;;;;;20.33;7.90;;;;;;;-1.61;61.79;100429.38;5096043;28;20040;-70
2022/03/02 05:27:57;;;;;;;21.08;7.82;;;;;;;-1.38;61.76;100426.63;5096874;28;20040;-71
2022/03/02 05:30:26;;;;;;;16.77;7.90;;;;;;;-1.31;61.03;100429.47;5094812;28;20047;-71
2022/03/02 05:32:56;;;;;;;19.13;7.55;;;;;;;-1.69;61.24;100430.59;5094778;28;20122;-71
2022/03/02 05:35:27;;;;;;;19.33;7.30;;;;;;;-1.76;62.04;100435.13;5096692;28;20040;-71
2022/03/02 05:37:56;;;;;;;12.60;6.75;;;;;;;-1.83;62.68;100431.41;5095689;28;20052;-71
2022/03/02 05:40:25;;;;;;;15.43;6.85;;;;;;;-1.96;62.65;100433.06;5096230;28;20036;-71
2022/03/02 05:42:55;;;;;;;;;;;;;;;-1.98;63.09;100440.47;5095972;28;20069;-71
2022/03/02 05:45:24;;;;;;;12.27;5.57;;;;;;;-2.07;63.42;100434.94;5094251;28;19966;-71
2022/03/02 05:47:53;;;;;;;15.63;6.20;;;;;;;-1.84;63.22;100434.66;5061137;28;20036;-70
2022/03/02 05:50:22;;;;;;;15.30;5.78;;;;;;;-1.65;62.63;100442.50;5095990;28;20123;-71
2022/03/02 05:52:53;;;;;;;17.10;5.93;;;;;;;-1.58;62.59;100444.59;5095494;28;20039;-71
2022/03/02 05:55:22;;;;;;;14.50;6.32;;;;;;;-1.76;62.84;100443.50;5095930;28;20064;-70
2022/03/02 05:57:51;;;;;;;14.57;6.30;;;;;;;-1.84;62.80;100449.69;5097366;28;20048;-71
2022/03/02 06:00:20;;;;;;;18.80;7.80;;;;;;;-1.70;63.10;100448.88;5095380;28;20079;-71
2022/03/02 06:02:50;;;;;;;14.88;5.93;;;;;;;-1.78;63.17;100450.06;5094986;28;20294;-70
2022/03/02 06:05:19;;;;;;;13.20;6.53;;;;;;;-1.66;62.92;100444.94;5095299;28;20036;-71
2022/03/02 06:07:47;;;;;;;18.48;6.88;;;;;;;-1.53;62.43;100443.22;5094938;28;20040;-71
2022/03/02 06:10:19;;;;;;;17.13;6.33;;;;;;;-1.35;61.46;100440.94;5094802;28;20040;-71
2022/03/02 06:12:49;;;;;;;17.83;8.20;;;;;;;-1.50;60.75;100413.38;5095079;28;20669;-70
2022/03/02 06:15:18;;;;;;;24.45;8.70;;;;;;;-1.28;60.93;100434.66;5095089;28;20060;-71
2022/03/02 06:17:48;;;;;;;19.98;8.40;;;;;;;-1.17;60.38;100429.47;5095015;28;20036;-71
2022/03/02 06:20:18;;;;;;;17.67;6.72;;;;;;;-1.26;60.27;100393.03;5094702;28;20071;-71
2022/03/02 06:22:49;;;;;;;20.33;7.15;;;;;;;-0.99;59.58;100429.66;5094946;28;20115;-71
2022/03/02 06:25:21;;;;;;;18.70;7.10;;;;;;;-0.93;59.68;100437.50;5094973;28;20048;-71
2022/03/02 06:27:50;;;;;;;16.38;6.50;;;;;;;-0.88;59.62;100421.09;5094811;28;20036;-71
2022/03/02 06:30:20;;;;;;;14.55;5.93;;;;;;;-0.95;59.54;100411.53;5094747;28;20044;-71
2022/03/02 06:32:49;;;;;;;15.95;6.13;;;;;;;-0.87;58.83;100430.38;5094527;28;20127;-71
2022/03/02 06:35:17;;;;;;;11.67;5.00;;;;;;;-0.79;59.10;100426.63;5094328;28;20094;-71
2022/03/02 06:37:47;;;;;;;14.60;6.07;;;;;;;-0.61;58.73;100435.19;5094221;28;20042;-71
2022/03/02 06:40:16;;;;;;;;;;;;;;;-0.63;58.97;100429.22;5095300;28;20047;-71
2022/03/02 06:43:05;;;;;;;13.13;4.78;;;;;;;-0.60;58.68;100431.88;5094592;28;19920;-71
2022/03/02 06:45:45;;;;;;;;;;;;;;;-0.67;58.40;100425.66;5094482;28;20485;-70
2022/03/02 06:48:18;;;;;;;;;;;;;;;-0.75;58.23;100431.03;5094290;28;19927;-70
2022/03/02 06:50:53;;;;;;;14.30;6.20;;;;;;;-0.78;58.50;100421.72;5094371;28;20266;-71
2022/03/02 06:53:30;;;;;;;18.63;6.93;;;;;;;-0.51;58.02;100427.38;5094270;28;20082;-70
2022/03/02 06:56:01;;;;;;;16.65;6.20;;;;;;;-0.28;57.96;100416.94;5094016;28;20055;-70
2022/03/02 06:58:40;;;;;;;12.07;5.95;;;;;;;-0.06;57.49;100429.00;5093966;28;20054;-71
2022/03/02 07:01:11;;;;;;;15.20;6.53;;;;;;;-0.04;57.07;100425.78;5094091;28;20083;-71
2022/03/02 07:03:47;;;;;;;15.57;7.32;;;;;;;0.01;56.84;100416.00;5093877;28;20054;-70
2022/03/02 07:06:17;;;;;;;17.02;7.13;;;;;;;0.23;56.79;100418.84;5093562;28;20072;-70
2022/03/02 07:08:48;;;;;;;19.27;6.20;;;;;;;0.47;56.38;100425.13;5093666;28;20040;-71
2022/03/02 07:11:18;;;;;;;14.70;6.65;;;;;;;0.72;56.03;100407.09;5093705;28;20046;-70
2022/03/02 07:13:51;;;;;;;16.13;6.38;;;;;;;0.80;55.63;100400.81;5094594;28;20063;-70
2022/03/02 07:16:22;;;;;;;15.35;5.68;;;;;;;0.83;55.20;100411.03;5093656;28;20494;-70
2022/03/02 07:18:52;;;;;;;17.00;6.05;;;;;;;1.00;54.97;100406.81;5093611;28;20130;-71
2022/03/02 07:21:27;;;;;;;17.17;6.97;;;;;;;1.14;54.74;100399.16;5093910;28;20452;-71
2022/03/02 07:24:00;;;;;;;14.85;6.03;;;;;;;1.22;54.25;100402.06;5093522;28;20044;-70
2022/03/02 07:26:30;;;;;;;17.05;6.63;;;;;;;1.51;54.05;100396.75;5093797;28;20040;-71
2022/03/02 07:29:01;;;;;;;18.58;7.32;;;;;;;1.59;53.21;100400.44;5093770;28;20050;-70
2022/03/02 07:31:32;;;;;;;16.52;7.13;;;;;;;1.82;52.70;100388.94;5093462;28;20052;-72
2022/03/02 07:34:07;;;;;;;18.05;6.97;;;;;;;1.85;52.44;100374.81;5095054;28;20054;-70
2022/03/02 07:36:37;;;;;;;14.95;7.03;;;;;;;1.87;52.25;100382.47;5097500;28;20099;-71
2022/03/02 07:39:05;;;;;;;15.97;7.30;;;;;;;1.98;51.81;100381.28;5097856;28;20044;-71
2022/03/02 07:41:34;;;;;;;19.60;7.13;;;;;;;2.11;50.71;100386.06;5097759;28;20306;-73
2022/03/02 07:44:06;;;;;;;17.60;6.60;;;;;;;2.21;51.31;100375.56;5097426;28;20032;-73
2022/03/02 07:46:35;;;;;;;15.55;6.75;;;;;;;2.53;50.95;100372.78;5097363;28;20048;-73
2022/03/02 07:49:05;;;;;;;16.27;6.57;;;;;;;2.64;50.53;100369.03;5097067;28;20059;-74
2022/03/02 07:51:36;;;;;;;17.48;6.35;;;;;;;2.68;49.32;100365.88;5097668;28;20120;-72
2022/03/02 07:54:06;;;;;;;17.73;6.30;;;;;;;2.88;49.20;100373.41;5097476;28;20089;-72
2022/03/02 07:56:36;;;;;;;13.23;5.53;;;;;;;3.16;48.81;100372.03;5096161;28;20040;-72
2022/03/02 07:59:08;;;;;;;17.08;5.05;;;;;;;3.40;48.22;100369.59;5097628;28;20394;-71
2022/03/02 08:01:41;;;;;;;14.35;5.53;;;;;;;3.61;47.03;100372.06;5097206;28;20093;-74
2022/03/02 08:04:11;;;;;;;12.75;5.40;;;;;;;3.54;46.59;100365.94;5096994;28;20043;-74
2022/03/02 08:06:41;;;;;;;12.27;5.32;;;;;;;3.64;45.55;100357.94;5096134;28;20036;-74
2022/03/02 08:09:13;;;;;;;11.30;4.68;;;;;;;3.95;45.12;100359.91;5097077;28;20131;-74
2022/03/02 08:11:42;;;;;;;17.48;4.88;;;;;;;4.12;44.73;100368.09;5096987;28;20044;-74
2022/03/02 08:14:12;;;;;;;10.15;4.13;;;;;;;4.15;44.40;100358.09;5097101;28;20075;-74
2022/03/02 08:16:43;;;;;;;10.07;4.45;;;;;;;4.11;43.28;100351.22;5108743;28;20050;-72
2022/03/02 08:19:12;;;;;;;9.80;4.32;;;;;;;4.35;42.93;100357.13;5117205;28;20050;-72
2022/03/02 08:21:43;;;;;;;8.40;4.25;;;;;;;4.31;42.12;100350.25;5117068;28;20051;-72
2022/03/02 08:24:16;;;;;;;14.85;5.30;;;;;;;4.58;42.32;100346.97;5117103;28;20092;-71
2022/03/02 08:26:52;;;;;;;11.23;5.07;;;;;;;4.75;41.79;100342.53;5108312;28;20485;-72
2022/03/02 08:29:26;;;;;;;12.48;4.57;;;;;;;4.59;42.18;100338.59;5095718;28;20068;-71
2022/03/02 08:31:59;;;;;;;10.75;4.57;;;;;;;4.44;41.37;100348.19;5096533;28;20128;-72
2022/03/02 08:34:29;;;;;;;13.00;4.75;;;;;;;4.79;42.02;100341.81;5104052;28;20051;-71
2022/03/02 08:36:58;;;;;;;9.27;4.68;;;;;;;4.80;40.55;100343.50;5117070;27;20043;-72
2022/03/02 08:39:28;;;;;;;14.63;5.47;;;;;;;4.53;40.28;100312.28;5072321;28;20035;-74
2022/03/02 08:41:57;;;;;;;11.32;4.40;;;;;;;4.85;40.83;100341.97;5057169;28;20040;-74
2022/03/02 08:44:28;;;;;;;13.82;4.97;;;;;;;5.10;39.94;100338.56;5096131;28;20562;-74
2022/03/02 08:46:59;;;;;;;9.75;4.53;;;;;;;5.27;39.79;100339.97;5095477;28;20066;-73
2022/03/02 08:49:28;;;;;;;13.70;5.10;;;;;;;5.32;40.17;100341.84;5095947;28;20060;-74
2022/03/02 08:51:57;;;;;;;17.80;5.60;;;;;;;5.49;39.52;100338.94;5096435;28;20405;-71
2022/03/02 08:54:28;;;;;;;12.95;4.85;;;;;;;5.13;38.90;100323.50;5096627;28;20044;-72
2022/03/02 08:56:58;;;;;;;12.63;4.45;;;;;;;5.34;39.37;100330.09;5096212;28;20056;-71
2022/03/02 08:59:32;;;;;;;9.95;4.35;;;;;;;5.55;38.73;100332.38;5096354;28;20440;-71
2022/03/02 09:02:07;;;;;;;8.25;4.50;;;;;;;5.53;38.65;100320.50;5095743;28;20040;-71
2022/03/02 09:04:37;;;;;;;10.88;4.50;;;;;;;5.39;38.52;100297.31;5095953;28;20127;-72
2022/03/02 09:07:07;;;;;;;9.93;4.32;;;;;;;5.76;38.51;100304.31;5094857;28;20047;-71
2022/03/02 09:09:36;;;;;;;12.60;4.88;;;;;;;5.97;38.18;100304.94;5099882;28;20486;-71
2022/03/02 09:12:06;;;;;;;10.23;4.80;;;;;;;6.03;37.78;100305.09;5112017;28;20118;-71
2022/03/02 09:14:39;;;;;;;9.18;4.47;;;;;;;6.27;37.59;100297.28;5116350;28;20588;-72
2022/03/02 09:17:08;;;;;;;12.75;4.45;;;;;;;6.48;37.37;100300.38;5116404;28;20116;-73
2022/03/02 09:19:39;;;;;;;10.95;4.50;;;;;;;6.39;36.81;100290.88;5115947;28;20094;-74
2022/03/02 09:22:08;;;;;;;11.60;4.40;;;;;;;6.05;36.75;100295.84;5116329;28;20069;-73
2022/03/02 09:24:38;;;;;;;11.05;4.47;;;;;;;5.84;36.71;100298.66;5114673;28;20086;-73
2022/03/02 09:27:08;;;;;;;;;;;;;;;6.01;36.41;100294.06;5116227;28;20059;-73
2022/03/02 09:29:45;;;;;;;8.60;3.83;;;;;;;6.15;36.78;100287.69;5115924;28;19969;-73
2022/03/02 09:32:14;;;;;;;10.63;4.30;;;;;;;6.13;36.53;100281.72;5110052;28;20117;-71
2022/03/02 09:34:48;;;;;;;11.13;4.45;;;;;;;6.50;36.07;100286.91;5100669;28;20093;-71
2022/03/02 09:37:18;;;;;;;10.65;4.22;;;;;;;6.45;35.86;100280.03;5095502;28;20043;-71
2022/03/02 09:39:50;;;;;;;12.93;4.88;;;;;;;6.49;35.73;100280.13;5096259;28;20485;-72
2022/03/02 09:42:23;;;;;;;;;;;;;;;6.76;35.53;100282.50;5095775;28;20051;-71
2022/03/02 09:45:00;;;;;;;10.73;4.55;;;;;;;6.92;35.35;100281.16;5095588;28;19926;-72
2022/03/02 09:47:44;;;;;;;10.43;4.75;;;;;;;7.13;34.39;100286.72;5098039;28;20543;-72
2022/03/02 09:50:17;;;;;;;7.65;3.58;;;;;;;7.12;34.20;100285.03;5100376;28;20040;-72
2022/03/02 09:52:48;;;;;;;9.13;4.25;;;;;;;7.08;34.33;100290.88;5093838;28;20055;-72
2022/03/02 09:55:28;;;;;;;10.10;4.60;;;;;;;7.27;33.90;100278.59;5094815;28;20059;-72
2022/03/02 09:58:32;;;;;;;9.30;4.13;;;;;;;7.66;34.15;100276.06;5093965;28;20043;-71
2022/03/02 10:01:27;;;;;;;9.65;4.90;;;;;;;7.27;34.06;100272.69;5107603;28;20055;-71
2022/03/02 10:03:59;;;;;;;15.82;5.32;;;;;;;7.59;34.63;100275.88;5112074;28;20043;-71
2022/03/02 10:06:29;;;;;;;10.95;4.70;;;;;;;7.73;34.45;100280.44;5115365;28;20431;-71
2022/03/02 10:09:00;;;;;;;7.55;4.22;;;;;;;7.47;32.56;100271.41;5109791;28;20077;-72
2022/03/02 10:11:35;;;;;;;10.23;4.20;;;;;;;7.51;32.35;100275.72;5094782;28;20044;-72
2022/03/02 10:14:04;;;;;;;9.52;4.35;;;;;;;7.55;32.56;100259.75;5106238;28;20061;-71
2022/03/02 10:16:43;;;;;;;9.60;3.90;;;;;;;7.51;32.15;100263.03;5108978;28;20051;-72
2022/03/02 10:19:34;;;;;;;7.68;3.88;;;;;;;7.90;32.52;100261.28;5094475;28;20808;-71
2022/03/02 10:22:20;;;;;;;11.63;4.75;;;;;;;8.44;32.68;100245.34;5094539;28;20044;-73
2022/03/02 10:24:51;;;;;;;11.10;4.07;;;;;;;8.41;31.89;100247.84;5107443;28;20051;-73
2022/03/02 10:27:33;;;;;;;8.57;4.10;;;;;;;8.95;32.29;100238.53;5095677;28;20488;-73
2022/03/02 10:30:08;;;;;;;7.88;3.75;;;;;;;9.34;31.78;100234.00;5096610;28;20040;-74
2022/03/02 10:32:43;;;;;;;7.70;3.90;;;;;;;8.49;30.22;100242.06;5094157;28;20052;-72
2022/03/02 10:35:14;;;;;;;9.18;4.40;;;;;;;7.99;30.08;100241.13;5094375;28;20459;-73
2022/03/02 10:37:54;;;;;;;9.25;4.00;;;;;;;8.66;30.91;100243.16;5093777;28;20054;-73
2022/03/02 10:40:24;;;;;;;7.80;3.93;;;;;;;9.06;30.97;100231.91;5093743;28;20085;-73
2022/03/02 10:42:57;;;;;;;7.80;3.70;;;;;;;9.59;31.17;100224.09;5095479;28;20036;-73
2022/03/02 10:45:27;;;;;;;9.38;3.80;;;;;;;9.65;30.46;100234.34;5114342;28;20112;-74
2022/03/02 10:48:02;;;;;;;9.23;4.28;;;;;;;9.74;30.18;100224.28;5114326;28;20109;-73
2022/03/02 10:50:34;;;;;;;6.88;3.30;;;;;;;9.84;29.66;100206.53;5111414;28;20063;-72
2022/03/02 10:53:07;;;;;;;6.90;3.72;;;;;;;9.68;29.11;100203.81;5093079;28;20064;-73
2022/03/02 10:55:36;;;;;;;10.40;3.60;;;;;;;10.03;28.88;100198.25;5093833;28;20051;-71
2022/03/02 10:58:06;;;;;;;7.85;3.88;;;;;;;10.10;28.80;100200.00;5093971;28;20036;-71
2022/03/02 11:00:35;;;;;;;;;;;;;;;9.84;28.34;100195.47;5094453;28;20055;-71
2022/03/02 11:03:08;;;;;;;7.90;3.88;;;;;;;9.68;28.75;100194.47;5093415;28;20384;-72
2022/03/02 11:05:37;;;;;;;7.00;3.35;;;;;;;9.30;28.55;100186.41;5093689;28;20044;-72
2022/03/02 11:08:06;;;;;;;7.97;3.47;;;;;;;8.93;28.97;100180.78;5091665;28;20751;-72
2022/03/02 11:10:37;;;;;;;9.10;3.72;;;;;;;8.98;28.93;100182.56;5093266;28;20135;-71
2022/03/02 11:13:11;;;;;;;7.88;3.67;;;;;;;9.11;29.12;100189.53;5093905;28;20413;-72
2022/03/02 11:15:49;;;;;;;9.68;3.67;;;;;;;8.76;28.94;100185.63;5093687;28;20551;-73
2022/03/02 11:18:31;;;;;;;8.18;3.70;;;;;;;9.11;28.92;100189.53;5095707;28;20044;-74
2022/03/02 11:21:02;;;;;;;12.32;4.93;;;;;;;9.80;29.51;100179.31;5113468;28;20050;-71
2022/03/02 11:23:34;;;;;;;10.43;4.00;;;;;;;9.74;28.67;100179.25;5114429;28;20084;-73
2022/03/02 11:26:08;;;;;;;8.38;4.10;;;;;;;9.87;29.63;100180.22;5112861;28;20051;-73
2022/03/02 11:28:38;;;;;;;9.55;4.00;;;;;;;9.54;28.82;100184.97;5113771;28;20520;-72
2022/03/02 11:31:10;;;;;;;8.25;3.72;;;;;;;9.44;29.66;100164.50;5113871;28;20043;-72
2022/03/02 11:33:40;;;;;;;10.23;4.28;;;;;;;9.38;28.98;100173.75;5106998;28;20100;-71
2022/03/02 11:36:12;;;;;;;8.95;3.85;;;;;;;9.45;28.90;100171.28;5103286;28;20043;-72
2022/03/02 11:38:43;;;;;;;9.65;4.00;;;;;;;9.70;29.08;100158.81;5113951;28;20535;-73
2022/03/02 11:41:13;;;;;;;8.57;3.78;;;;;;;10.10;29.16;100158.38;5112569;28;20035;-74